HECA

Cairo International Airport

Cairo, Egypt
METAR HECA 150300Z 36006KT 6000 SCT025 25/20 Q1008 NOSIG
Observed Flight Rules
Aug-15 @ 03:00 UTC (36 minutes ago) Marginal Visual Flight Rules
Wind Visibility Clouds
360° at 6 knots 6,003 meters
  • Scattered at 2,500' AGL
Temperatures Readings
Current 25°C / 77°F
Dewpoint 20°C / 68°F
Humidity 74%
Altimeter 29.76" Hg
Pressure 1008 hPa
Elevation 74
METAR HECA 150300Z 36006KT 6000 SCT025 25/20 Q1008 NOSIG
Observed Flight Rules
Aug-15 @ 03:00 UTC
(36 minutes ago)
MVFR
Wind Visibility
360° at 6 knots 6,003 meters
Clouds
  • Scattered at 2,500' AGL
Temperature Dewpoint
25°C / 77°F 20°C / 68°F
Humidity Altimeter Pressure
74% 29.76" Hg 1008 hPa